createdAt,value
2023-05-10T00:00:48.923Z,99091.84
2023-05-10T00:03:17.317Z,99086.56
2023-05-10T00:05:47.118Z,99084.09
2023-05-10T00:08:15.393Z,99078.03
2023-05-10T00:10:43.685Z,99077.53
2023-05-10T00:13:12.141Z,99075.88
2023-05-10T00:15:40.506Z,99076.19
2023-05-10T00:18:08.902Z,99077.63
2023-05-10T00:20:37.331Z,99068.81
2023-05-10T00:23:07.039Z,99073.31
2023-05-10T00:25:35.405Z,99070.31
2023-05-10T00:28:03.736Z,99059.88
2023-05-10T00:30:32.211Z,99057.19
2023-05-10T00:33:00.616Z,99057.78
2023-05-10T00:35:29.214Z,99054.84
2023-05-10T00:37:57.576Z,99052.97
2023-05-10T00:40:27.669Z,99038.06
2023-05-10T00:42:56.038Z,99037.88
2023-05-10T00:45:24.713Z,99037.66
2023-05-10T00:47:56.141Z,99034.69
2023-05-10T00:50:25.482Z,99028.13
2023-05-10T00:52:54.044Z,99023.19
2023-05-10T00:55:22.913Z,99037.63
2023-05-10T00:57:52.743Z,99029.13
2023-05-10T01:00:21.456Z,99030.53
2023-05-10T01:02:50.668Z,99019.25
2023-05-10T01:05:19.393Z,99021.81
2023-05-10T01:07:47.809Z,99018.53
2023-05-10T01:10:16.798Z,99008.38
2023-05-10T01:12:48.744Z,99015.31
2023-05-10T01:15:22.416Z,99012.31
2023-05-10T01:17:51.111Z,99011.00
2023-05-10T01:20:19.795Z,99004.13
2023-05-10T01:23:25.889Z,98996.19
2023-05-10T01:26:22.786Z,98997.91
2023-05-10T01:29:23.441Z,99000.75
2023-05-10T01:32:31.418Z,99000.53
2023-05-10T01:35:05.518Z,98997.25
2023-05-10T01:37:47.423Z,98994.25
2023-05-10T01:40:25.373Z,99000.09
2023-05-10T01:43:00.681Z,99003.16
2023-05-10T01:45:36.025Z,98993.81
2023-05-10T01:48:12.807Z,98998.81
2023-05-10T01:50:45.672Z,98988.38
2023-05-10T01:53:19.452Z,98995.31
2023-05-10T01:55:51.394Z,98987.63
2023-05-10T01:58:24.999Z,98992.13
2023-05-10T02:00:54.759Z,98983.59
2023-05-10T02:03:28.358Z,98985.00
2023-05-10T02:05:58.198Z,98991.66
2023-05-10T02:08:27.765Z,98983.97
2023-05-10T02:10:58.973Z,98988.16
2023-05-10T02:13:29.774Z,98986.78
2023-05-10T02:15:59.767Z,98992.63
2023-05-10T02:18:31.139Z,98987.69
2023-05-10T02:21:01.675Z,98981.94
2023-05-10T02:23:31.506Z,98983.88
2023-05-10T02:26:02.147Z,98981.44
2023-05-10T02:28:31.343Z,98988.88
2023-05-10T02:31:00.848Z,98973.72
2023-05-10T02:33:33.306Z,98993.38
2023-05-10T02:36:03.567Z,98986.19
2023-05-10T02:38:34.854Z,98987.59
2023-05-10T02:41:07.007Z,98982.66
2023-05-10T02:43:37.616Z,98984.63
2023-05-10T02:46:06.131Z,98986.03
2023-05-10T02:48:36.085Z,98982.75
2023-05-10T02:51:09.329Z,98979.47
2023-05-10T02:53:43.241Z,98985.59
2023-05-10T02:56:18.260Z,98981.16
2023-05-10T02:58:47.236Z,98982.56
2023-05-10T03:01:15.641Z,98988.09
2023-05-10T03:03:45.338Z,98977.66
2023-05-10T03:06:13.702Z,98987.34
2023-05-10T03:08:42.259Z,98990.69
2023-05-10T03:11:30.329Z,98992.41
2023-05-10T03:14:12.393Z,98994.94
2023-05-10T03:16:48.897Z,98991.91
2023-05-10T03:19:29.707Z,98989.72
2023-05-10T03:22:01.736Z,98990.03
2023-05-10T03:24:30.943Z,99004.16
2023-05-10T03:27:03.825Z,99003.88
2023-05-10T03:29:33.373Z,98999.50
2023-05-10T03:32:02.110Z,99001.72
2023-05-10T03:34:33.425Z,98996.50
2023-05-10T03:37:01.878Z,99010.28
2023-05-10T03:39:30.293Z,99001.19
2023-05-10T03:41:58.744Z,99004.78
2023-05-10T03:44:27.211Z,99002.00
2023-05-10T03:46:56.417Z,99007.22
2023-05-10T03:49:24.732Z,99007.22
2023-05-10T03:51:54.571Z,99010.53
2023-05-10T03:54:22.905Z,99005.56
2023-05-10T03:56:51.299Z,99008.00
2023-05-10T03:59:19.596Z,99008.84
2023-05-10T04:01:48.030Z,99011.00
2023-05-10T04:04:16.553Z,99011.81
2023-05-10T04:06:44.965Z,99006.81
2023-05-10T04:09:14.680Z,99013.69
2023-05-10T04:11:43.003Z,99015.91
2023-05-10T04:14:11.502Z,99014.50
2023-05-10T04:16:39.886Z,99017.78
2023-05-10T04:19:08.518Z,99015.25
2023-05-10T04:21:36.889Z,99019.34
2023-05-10T04:24:05.999Z,99027.06
2023-05-10T04:26:35.823Z,99024.53
2023-05-10T04:29:04.421Z,99030.28
2023-05-10T04:31:32.811Z,99018.66
2023-05-10T04:34:01.132Z,99024.09
2023-05-10T04:36:29.863Z,99030.69
2023-05-10T04:38:58.360Z,99033.91
2023-05-10T04:41:26.974Z,99031.63
2023-05-10T04:43:56.800Z,99034.00
2023-05-10T04:46:25.370Z,99022.59
2023-05-10T04:48:53.764Z,99034.91
2023-05-10T04:51:22.443Z,99025.63
2023-05-10T04:54:04.652Z,99028.31
2023-05-10T04:56:34.888Z,99026.38
2023-05-10T04:59:04.675Z,99016.00
2023-05-10T05:01:33.149Z,99022.41
2023-05-10T05:04:01.645Z,99021.63
2023-05-10T05:06:30.078Z,99021.16
2023-05-10T05:08:58.425Z,99016.69
2023-05-10T05:11:27.486Z,99016.47
2023-05-10T05:13:55.990Z,99022.03
2023-05-10T05:16:25.780Z,99027.06
2023-05-10T05:18:54.377Z,99014.31
2023-05-10T05:21:23.347Z,99016.78
2023-05-10T05:23:51.774Z,99024.47
2023-05-10T05:26:20.144Z,99014.72
2023-05-10T05:28:49.736Z,99019.66
2023-05-10T05:31:18.797Z,99015.44
2023-05-10T05:33:48.734Z,99015.00
2023-05-10T05:36:17.169Z,99009.84
2023-05-10T05:38:45.541Z,99008.78
2023-05-10T05:41:13.908Z,99010.22
2023-05-10T05:43:42.352Z,99009.16
2023-05-10T05:46:10.808Z,99016.09
2023-05-10T05:48:39.311Z,99010.28
2023-05-10T05:51:09.000Z,99010.50
2023-05-10T05:53:37.427Z,99010.44
2023-05-10T05:56:06.824Z,99022.59
2023-05-10T05:58:35.151Z,99016.13
2023-05-10T06:01:03.563Z,99018.81
2023-05-10T06:03:32.136Z,99017.09
2023-05-10T06:06:00.493Z,99019.41
2023-05-10T06:08:30.185Z,99024.88
2023-05-10T06:10:58.526Z,99031.78
2023-05-10T06:13:29.949Z,99025.59
2023-05-10T06:15:58.429Z,99025.47
2023-05-10T06:18:27.011Z,99022.88
2023-05-10T06:20:55.384Z,99028.91
2023-05-10T06:23:24.252Z,99016.31
2023-05-10T06:25:54.655Z,99021.56
2023-05-10T06:28:23.020Z,99022.03
2023-05-10T06:30:51.419Z,99026.09
2023-05-10T06:33:19.750Z,99021.84
2023-05-10T06:35:48.081Z,99035.94
2023-05-10T06:38:16.469Z,99030.16
2023-05-10T06:40:45.205Z,99025.53
2023-05-10T06:43:14.966Z,99023.34
2023-05-10T06:45:43.411Z,99022.50
2023-05-10T06:48:11.831Z,99028.53
2023-05-10T06:50:40.224Z,99025.34
2023-05-10T06:53:08.593Z,99025.84
2023-05-10T06:55:36.947Z,99022.78
2023-05-10T06:58:05.611Z,99014.84
2023-05-10T07:00:35.666Z,99016.88
2023-05-10T07:03:04.148Z,99026.66
2023-05-10T07:05:33.019Z,99022.75
2023-05-10T07:08:01.985Z,99013.19
2023-05-10T07:10:30.945Z,99022.50
2023-05-10T07:12:59.321Z,99022.31
2023-05-10T07:15:27.743Z,99020.91
2023-05-10T07:17:57.729Z,99014.91
2023-05-10T07:20:26.651Z,99007.63
2023-05-10T07:22:55.054Z,99013.94
2023-05-10T07:25:23.581Z,99008.59
2023-05-10T07:27:52.057Z,99004.56
2023-05-10T07:30:20.793Z,98994.31
2023-05-10T07:32:49.310Z,99004.44
2023-05-10T07:35:19.402Z,99002.75
2023-05-10T07:37:47.890Z,99010.56
2023-05-10T07:40:16.303Z,99002.44
2023-05-10T07:42:44.806Z,99008.47
2023-05-10T07:45:13.634Z,99002.66
2023-05-10T07:47:42.060Z,99000.34
2023-05-10T07:50:11.093Z,99007.22
2023-05-10T07:52:40.837Z,99013.50
2023-05-10T07:55:11.284Z,98999.88
2023-05-10T07:57:40.145Z,99013.59
2023-05-10T08:00:10.515Z,99020.97
2023-05-10T08:02:39.109Z,99022.00
2023-05-10T08:05:08.965Z,99020.13
2023-05-10T08:07:37.678Z,99013.84
2023-05-10T08:10:10.057Z,99022.72
2023-05-10T08:12:38.394Z,99024.44
2023-05-10T08:15:08.848Z,99017.00
2023-05-10T08:17:37.535Z,99024.00
2023-05-10T08:20:08.416Z,99011.09
2023-05-10T08:22:36.860Z,99012.34
2023-05-10T08:25:08.258Z,99018.97
2023-05-10T08:27:36.767Z,99013.28
2023-05-10T08:30:06.227Z,99010.09
2023-05-10T08:32:36.009Z,99005.97
2023-05-10T08:35:04.580Z,99006.19
2023-05-10T08:37:34.013Z,99006.00
2023-05-10T08:40:02.895Z,99025.31
2023-05-10T08:42:35.170Z,99003.59
2023-05-10T08:45:04.691Z,99011.53
2023-05-10T08:47:33.759Z,99001.16
2023-05-10T08:50:02.691Z,99000.78
2023-05-10T08:52:34.850Z,99008.53
2023-05-10T08:55:04.215Z,99009.50
2023-05-10T08:57:34.267Z,99004.69
2023-05-10T09:00:03.989Z,99007.72
2023-05-10T09:02:33.311Z,99011.38
2023-05-10T09:05:02.169Z,99011.50
2023-05-10T09:07:30.683Z,99010.72
2023-05-10T09:10:00.103Z,99017.53
2023-05-10T09:12:29.358Z,99013.09
2023-05-10T09:15:01.903Z,99011.38
2023-05-10T09:17:31.785Z,99003.22
2023-05-10T09:20:01.016Z,98992.59
2023-05-10T09:22:29.767Z,98996.97
2023-05-10T09:25:10.326Z,99003.19
2023-05-10T09:27:39.846Z,99001.28
2023-05-10T09:30:11.736Z,99012.13
2023-05-10T09:32:42.011Z,99005.34
2023-05-10T09:35:12.409Z,99008.16
2023-05-10T09:37:43.574Z,98997.63
2023-05-10T09:40:16.441Z,99004.00
2023-05-10T09:42:54.442Z,98987.00
2023-05-10T09:45:25.983Z,99008.53
2023-05-10T09:47:54.648Z,98993.63
2023-05-10T09:50:23.959Z,98982.81
2023-05-10T09:52:54.140Z,98982.09
2023-05-10T09:55:24.649Z,98992.63
2023-05-10T09:58:02.911Z,98993.78
2023-05-10T10:00:38.300Z,98990.16
2023-05-10T10:03:07.394Z,98993.63
2023-05-10T10:05:37.828Z,98992.97
2023-05-10T10:08:07.448Z,98993.53
2023-05-10T10:10:36.414Z,98993.19
2023-05-10T10:13:05.926Z,98995.28
2023-05-10T10:15:36.898Z,98993.44
2023-05-10T10:18:07.275Z,98982.59
2023-05-10T10:20:36.248Z,98998.59
2023-05-10T10:23:04.987Z,98984.59
2023-05-10T10:25:33.859Z,98992.03
2023-05-10T10:28:23.293Z,98991.25
2023-05-10T10:30:56.380Z,98996.66
2023-05-10T10:33:51.537Z,98996.84
2023-05-10T10:36:21.074Z,98986.00
2023-05-10T10:39:04.211Z,98986.59
2023-05-10T10:41:35.682Z,98983.63
2023-05-10T10:44:27.735Z,98978.50
2023-05-10T10:47:09.349Z,98983.69
2023-05-10T10:49:46.251Z,98977.22
2023-05-10T10:52:29.425Z,98977.47
2023-05-10T10:55:04.109Z,98962.91
2023-05-10T10:57:35.502Z,98958.44
2023-05-10T11:00:30.365Z,98960.75
2023-05-10T11:03:05.355Z,98964.06
2023-05-10T11:05:43.895Z,98964.66
2023-05-10T11:08:18.855Z,98974.69
2023-05-10T11:11:05.568Z,98968.66
2023-05-10T11:13:36.250Z,98957.66
2023-05-10T11:16:19.943Z,98948.56
2023-05-10T11:19:02.778Z,98947.66
2023-05-10T11:21:32.277Z,98944.84
2023-05-10T11:24:02.329Z,98948.38
2023-05-10T11:26:35.851Z,98958.72
2023-05-10T11:29:06.020Z,98943.91
2023-05-10T11:31:36.668Z,98954.06
2023-05-10T11:34:07.152Z,98932.25
2023-05-10T11:36:38.455Z,98944.41
2023-05-10T11:39:08.587Z,98945.28
2023-05-10T11:41:39.337Z,98957.03
2023-05-10T11:44:11.881Z,98940.41
2023-05-10T11:46:43.231Z,98946.91
2023-05-10T11:49:14.393Z,98952.97
2023-05-10T11:51:44.448Z,98940.34
2023-05-10T11:54:13.683Z,98946.38
2023-05-10T11:56:42.904Z,98943.53
2023-05-10T11:59:11.356Z,98941.91
2023-05-10T12:01:40.035Z,98947.97
2023-05-10T12:04:08.992Z,98941.44
2023-05-10T12:06:43.323Z,98935.56
2023-05-10T12:09:11.914Z,98934.78
2023-05-10T12:11:44.265Z,98941.69
2023-05-10T12:14:13.249Z,98938.13
2023-05-10T12:16:42.552Z,98940.44
2023-05-10T12:19:11.324Z,98937.22
2023-05-10T12:21:42.517Z,98945.63
2023-05-10T12:24:11.552Z,98935.63
2023-05-10T12:29:25.915Z,98933.88
2023-05-10T12:31:58.919Z,98929.50
2023-05-10T12:34:28.948Z,98926.44
2023-05-10T12:36:59.276Z,98940.78
2023-05-10T12:39:27.775Z,98931.75
2023-05-10T12:41:56.161Z,98929.72
2023-05-10T12:44:24.601Z,98916.94
2023-05-10T12:46:52.997Z,98928.84
2023-05-10T12:49:21.348Z,98933.81
2023-05-10T12:51:49.746Z,98919.88
2023-05-10T12:54:19.632Z,98920.19
2023-05-10T12:56:48.012Z,98921.16
2023-05-10T12:59:16.292Z,98910.75
2023-05-10T13:01:44.711Z,98911.09
2023-05-10T13:04:13.202Z,98915.38
2023-05-10T13:06:41.584Z,98904.25
2023-05-10T13:09:09.936Z,98910.41
2023-05-10T13:11:39.757Z,98917.91
2023-05-10T13:14:08.139Z,98908.47
2023-05-10T13:16:36.835Z,98920.88
2023-05-10T13:19:05.264Z,98925.34
2023-05-10T13:21:34.008Z,98918.75
2023-05-10T13:24:02.536Z,98922.84
2023-05-10T13:26:31.145Z,98914.84
2023-05-10T13:29:00.962Z,98912.66
2023-05-10T13:31:29.504Z,98913.16
2023-05-10T13:33:58.346Z,98904.59
2023-05-10T13:36:26.713Z,98901.09
2023-05-10T13:38:55.104Z,98902.16
2023-05-10T13:41:23.424Z,98901.41
2023-05-10T13:43:51.832Z,98903.56
2023-05-10T13:46:21.634Z,98902.31
2023-05-10T13:48:50.034Z,98907.13
2023-05-10T13:51:19.459Z,98912.72
2023-05-10T13:53:48.568Z,98899.47
2023-05-10T13:56:17.177Z,98897.63
2023-05-10T13:58:45.495Z,98901.22
2023-05-10T14:01:13.933Z,98903.66
2023-05-10T14:03:43.800Z,98909.72
2023-05-10T14:06:12.263Z,98898.84
2023-05-10T14:08:41.149Z,98902.34
2023-05-10T14:11:09.546Z,98897.97
2023-05-10T14:13:37.914Z,98900.59
2023-05-10T14:16:07.097Z,98901.69
2023-05-10T14:18:35.762Z,98889.53
2023-05-10T14:21:06.490Z,98899.88
2023-05-10T14:23:34.944Z,98891.78
2023-05-10T14:26:03.868Z,98903.16
2023-05-10T14:28:32.445Z,98891.16
2023-05-10T14:31:01.066Z,98884.88
2023-05-10T14:33:29.431Z,98883.00
2023-05-10T14:35:58.573Z,98883.97
2023-05-10T14:38:28.939Z,98874.31
2023-05-10T14:40:57.404Z,98888.97
2023-05-10T14:43:25.798Z,98885.69
2023-05-10T14:45:54.194Z,98883.97
2023-05-10T14:48:23.373Z,98879.97
2023-05-10T14:50:53.523Z,98879.50
2023-05-10T14:53:21.998Z,98882.47
2023-05-10T14:55:51.820Z,98882.38
2023-05-10T14:58:20.669Z,98887.59
2023-05-10T15:00:49.051Z,98893.19
2023-05-10T15:03:18.145Z,98890.81
2023-05-10T15:05:47.379Z,98887.09
2023-05-10T15:08:15.723Z,98892.81
2023-05-10T15:10:44.126Z,98894.06
2023-05-10T15:13:13.814Z,98899.25
2023-05-10T15:15:42.320Z,98904.19
2023-05-10T15:18:11.430Z,98906.63
2023-05-10T15:20:39.849Z,98905.66
2023-05-10T15:23:08.188Z,98897.09
2023-05-10T15:25:38.212Z,98909.41
2023-05-10T15:28:07.208Z,98885.28
2023-05-10T15:30:37.022Z,98900.03
2023-05-10T15:33:05.436Z,98903.31
2023-05-10T15:35:34.468Z,98912.56
2023-05-10T15:38:02.808Z,98898.22
2023-05-10T15:40:31.390Z,98904.81
2023-05-10T15:42:59.806Z,98903.22
2023-05-10T15:45:28.252Z,98906.81
2023-05-10T15:47:58.023Z,98912.81
2023-05-10T15:50:26.472Z,98914.75
2023-05-10T15:52:55.057Z,98914.63
2023-05-10T15:55:23.463Z,98912.47
2023-05-10T15:57:51.906Z,98919.19
2023-05-10T16:00:21.111Z,98919.34
2023-05-10T16:02:49.745Z,98919.16
2023-05-10T16:05:20.206Z,98916.19
2023-05-10T16:07:49.353Z,98929.31
2023-05-10T16:10:18.197Z,98921.94
2023-05-10T16:12:47.233Z,98920.19
2023-05-10T16:15:15.849Z,98917.22
2023-05-10T16:17:44.598Z,98917.84
2023-05-10T16:20:13.601Z,98926.56
2023-05-10T16:22:44.477Z,98927.22
2023-05-10T16:25:13.901Z,98919.00
2023-05-10T16:27:43.205Z,98937.78
2023-05-10T16:30:12.639Z,98925.13
2023-05-10T16:32:41.098Z,98938.13
2023-05-10T16:35:11.005Z,98925.41
2023-05-10T16:37:39.391Z,98934.44
2023-05-10T16:40:11.305Z,98936.13
2023-05-10T16:42:39.645Z,98943.91
2023-05-10T16:45:09.993Z,98938.06
2023-05-10T16:47:39.300Z,98941.03
2023-05-10T16:50:09.650Z,98951.28
2023-05-10T16:52:38.127Z,98951.03
2023-05-10T16:55:09.378Z,98949.09
2023-05-10T16:57:37.699Z,98961.31
2023-05-10T17:00:08.694Z,98955.38
2023-05-10T17:02:37.155Z,98957.59
2023-05-10T17:05:06.711Z,98960.53
2023-05-10T17:07:35.129Z,98966.22
2023-05-10T17:10:03.525Z,98969.63
2023-05-10T17:12:33.476Z,98972.97
2023-05-10T17:15:01.882Z,98974.00
2023-05-10T17:17:30.506Z,98975.72
2023-05-10T17:19:59.654Z,98969.47
2023-05-10T17:22:28.199Z,98975.28
2023-05-10T17:24:56.556Z,98963.38
2023-05-10T17:27:24.919Z,98982.00
2023-05-10T17:29:58.985Z,98983.34
2023-05-10T17:32:27.835Z,98989.25
2023-05-10T17:34:56.330Z,98990.22
2023-05-10T17:37:24.942Z,98987.22
2023-05-10T17:39:53.420Z,98981.41
2023-05-10T17:42:21.824Z,98988.47
2023-05-10T17:44:50.247Z,98989.41
2023-05-10T17:47:20.705Z,98995.19
2023-05-10T17:49:49.058Z,99002.19
2023-05-10T17:52:17.411Z,99006.31
2023-05-10T17:54:45.772Z,99002.84
2023-05-10T17:57:14.167Z,99006.94
2023-05-10T17:59:42.557Z,99005.44
2023-05-10T18:02:11.043Z,99004.75
2023-05-10T18:04:42.570Z,99008.50
2023-05-10T18:07:11.108Z,99006.28
2023-05-10T18:09:39.524Z,99014.44
2023-05-10T18:12:08.116Z,99014.69
2023-05-10T18:14:41.012Z,99022.84
2023-05-10T18:17:10.461Z,99017.47
2023-05-10T18:19:38.833Z,99025.72
2023-05-10T18:22:10.664Z,99023.19
2023-05-10T18:24:40.297Z,99025.84
2023-05-10T18:27:09.284Z,99033.78
2023-05-10T18:29:37.948Z,99025.59
2023-05-10T18:32:08.008Z,99031.09
2023-05-10T18:34:36.361Z,99030.97
2023-05-10T18:37:07.553Z,99035.97
2023-05-10T18:39:38.111Z,99043.31
2023-05-10T18:42:07.507Z,99045.47
2023-05-10T18:44:35.981Z,99046.03
2023-05-10T18:47:04.392Z,99049.38
2023-05-10T18:49:35.616Z,99049.13
2023-05-10T18:52:04.433Z,99054.13
2023-05-10T18:54:33.794Z,99067.63
2023-05-10T18:57:04.339Z,99061.09
2023-05-10T18:59:33.491Z,99066.19
2023-05-10T19:02:04.103Z,99064.22
2023-05-10T19:04:33.874Z,99063.41
2023-05-10T19:07:03.671Z,99069.00
2023-05-10T19:09:33.557Z,99068.19
2023-05-10T19:12:03.443Z,99068.19
2023-05-10T19:14:32.802Z,99067.84
2023-05-10T19:17:02.641Z,99071.44
2023-05-10T19:19:31.752Z,99077.84
2023-05-10T19:22:03.529Z,99074.22
2023-05-10T19:24:36.534Z,99073.44
2023-05-10T19:27:07.795Z,99079.03
2023-05-10T19:29:37.362Z,99077.38
2023-05-10T19:32:06.461Z,99086.94
2023-05-10T19:34:35.806Z,99084.16
2023-05-10T19:37:05.203Z,99082.16
2023-05-10T19:39:34.035Z,99080.84
2023-05-10T19:42:03.258Z,99082.50
2023-05-10T19:44:34.107Z,99082.03
2023-05-10T19:47:04.772Z,99088.09
2023-05-10T19:49:34.945Z,99078.06
2023-05-10T19:52:05.169Z,99075.25
2023-05-10T19:54:33.613Z,99082.03
2023-05-10T19:57:02.551Z,99086.78
2023-05-10T19:59:32.432Z,99089.13
2023-05-10T20:02:01.205Z,99088.28
2023-05-10T20:04:30.173Z,99087.00
2023-05-10T20:06:59.335Z,99085.38
2023-05-10T20:09:28.416Z,99092.47
2023-05-10T20:11:57.836Z,99096.41
2023-05-10T20:14:26.962Z,99087.56
2023-05-10T20:16:56.901Z,99090.34
2023-05-10T20:19:26.030Z,99092.31
2023-05-10T20:21:56.158Z,99091.84
2023-05-10T20:24:24.797Z,99095.00
2023-05-10T20:26:53.462Z,99082.53
2023-05-10T20:29:22.196Z,99096.84
2023-05-10T20:31:50.654Z,99096.00
2023-05-10T20:34:21.031Z,99089.94
2023-05-10T20:36:49.423Z,99093.53
2023-05-10T20:39:18.055Z,99101.44
2023-05-10T20:41:47.670Z,99095.06
2023-05-10T20:44:16.109Z,99102.16
2023-05-10T20:46:45.134Z,99094.91
2023-05-10T20:49:13.936Z,99097.22
2023-05-10T20:51:43.718Z,99097.59
2023-05-10T20:54:12.097Z,99099.88
2023-05-10T20:56:40.529Z,99097.44
2023-05-10T20:59:08.937Z,99094.16
2023-05-10T21:01:37.467Z,99094.50
2023-05-10T21:04:06.010Z,99094.03
2023-05-10T21:06:34.421Z,99087.63
2023-05-10T21:09:04.623Z,99087.91
2023-05-10T21:11:36.259Z,99085.81
2023-05-10T21:14:04.727Z,99085.81
2023-05-10T21:16:33.370Z,99074.97
2023-05-10T21:19:01.768Z,99078.59
2023-05-10T21:21:30.153Z,99079.75
2023-05-10T21:23:58.754Z,99082.56
2023-05-10T21:26:28.728Z,99082.06
2023-05-10T21:28:58.194Z,99088.47
2023-05-10T21:31:26.690Z,99086.84
2023-05-10T21:33:55.113Z,99081.59
2023-05-10T21:36:23.570Z,99084.38
2023-05-10T21:38:51.996Z,99091.94
2023-05-10T21:41:20.468Z,99095.88
2023-05-10T21:43:50.226Z,99088.66
2023-05-10T21:46:18.665Z,99100.16
2023-05-10T21:48:47.122Z,99098.56
2023-05-10T21:51:15.619Z,99096.91
2023-05-10T21:53:43.962Z,99097.25
2023-05-10T21:56:12.311Z,99094.78
2023-05-10T21:58:40.693Z,99095.13
2023-05-10T22:01:10.443Z,99089.06
2023-05-10T22:03:38.867Z,99101.84
2023-05-10T22:06:08.455Z,99101.38
2023-05-10T22:08:36.796Z,99096.97
2023-05-10T22:11:05.179Z,99102.06
2023-05-10T22:13:33.497Z,99099.28
2023-05-10T22:16:01.864Z,99104.34
2023-05-10T22:18:31.615Z,99105.19
2023-05-10T22:20:59.933Z,99105.53
2023-05-10T22:23:28.271Z,99105.06
2023-05-10T22:26:02.752Z,99100.13
2023-05-10T22:28:31.512Z,99100.13
2023-05-10T22:30:59.869Z,99102.09
2023-05-10T22:33:28.339Z,99108.03
2023-05-10T22:35:58.144Z,99101.16
2023-05-10T22:38:26.512Z,99105.91
2023-05-10T22:40:54.815Z,99102.97
2023-05-10T22:43:23.169Z,99106.09
2023-05-10T22:45:52.457Z,99106.44
2023-05-10T22:48:22.100Z,99098.41
2023-05-10T22:50:50.468Z,99105.13
2023-05-10T22:53:20.210Z,99107.09
2023-05-10T22:55:48.565Z,99106.31
2023-05-10T22:58:16.982Z,99103.03
2023-05-10T23:00:45.524Z,99107.31
2023-05-10T23:03:14.675Z,99106.50
2023-05-10T23:05:42.988Z,99104.34
2023-05-10T23:08:11.485Z,99109.81
2023-05-10T23:10:41.194Z,99109.63
2023-05-10T23:13:09.554Z,99117.03
2023-05-10T23:15:37.895Z,99111.66
2023-05-10T23:18:06.391Z,99118.19
2023-05-10T23:20:34.794Z,99122.81
2023-05-10T23:23:03.114Z,99121.84
2023-05-10T23:25:31.606Z,99114.13
2023-05-10T23:28:01.254Z,99116.44
2023-05-10T23:30:29.525Z,99113.97
2023-05-10T23:32:57.954Z,99113.50
2023-05-10T23:35:26.330Z,99117.75
2023-05-10T23:37:54.703Z,99117.75
2023-05-10T23:40:23.220Z,99117.28
2023-05-10T23:42:51.651Z,99117.13
2023-05-10T23:45:21.409Z,99116.97
2023-05-10T23:47:49.735Z,99115.34
2023-05-10T23:50:18.429Z,99117.16
2023-05-10T23:52:46.986Z,99109.94
2023-05-10T23:55:15.662Z,99114.22
2023-05-10T23:57:44.105Z,99108.50
